sensor_id;sensor_type;location;lat;lon;timestamp;P1;durP1;ratioP1;P2;durP2;ratioP2
56045;SDS011;41913;51.030;3.706;2023-02-14T00:00:42;3.97;;;3.58;;
56045;SDS011;41913;51.030;3.706;2023-02-14T00:03:09;4.20;;;3.95;;
56045;SDS011;41913;51.030;3.706;2023-02-14T00:05:35;3.72;;;3.50;;
56045;SDS011;41913;51.030;3.706;2023-02-14T00:08:00;4.40;;;4.10;;
56045;SDS011;41913;51.030;3.706;2023-02-14T00:10:32;4.10;;;3.80;;
56045;SDS011;41913;51.030;3.706;2023-02-14T00:12:57;4.10;;;3.72;;
56045;SDS011;41913;51.030;3.706;2023-02-14T00:15:24;3.97;;;3.78;;
56045;SDS011;41913;51.030;3.706;2023-02-14T00:17:50;3.90;;;3.22;;
56045;SDS011;41913;51.030;3.706;2023-02-14T00:20:19;3.85;;;3.55;;
56045;SDS011;41913;51.030;3.706;2023-02-14T00:22:47;4.57;;;4.18;;
56045;SDS011;41913;51.030;3.706;2023-02-14T00:25:13;3.95;;;3.65;;
56045;SDS011;41913;51.030;3.706;2023-02-14T00:27:39;3.83;;;3.63;;
56045;SDS011;41913;51.030;3.706;2023-02-14T00:30:06;3.67;;;3.38;;
56045;SDS011;41913;51.030;3.706;2023-02-14T00:32:32;3.72;;;3.47;;
56045;SDS011;41913;51.030;3.706;2023-02-14T00:34:59;3.30;;;3.10;;
56045;SDS011;41913;51.030;3.706;2023-02-14T00:37:25;3.88;;;3.58;;
56045;SDS011;41913;51.030;3.706;2023-02-14T00:39:51;3.85;;;3.55;;
56045;SDS011;41913;51.030;3.706;2023-02-14T00:42:17;3.70;;;3.40;;
56045;SDS011;41913;51.030;3.706;2023-02-14T00:44:42;4.50;;;3.80;;
56045;SDS011;41913;51.030;3.706;2023-02-14T00:47:08;4.18;;;3.88;;
56045;SDS011;41913;51.030;3.706;2023-02-14T00:49:34;3.55;;;3.35;;
56045;SDS011;41913;51.030;3.706;2023-02-14T00:51:59;4.13;;;3.67;;
56045;SDS011;41913;51.030;3.706;2023-02-14T00:54:26;4.40;;;4.10;;
56045;SDS011;41913;51.030;3.706;2023-02-14T00:56:54;3.53;;;3.30;;
56045;SDS011;41913;51.030;3.706;2023-02-14T00:59:19;3.78;;;3.47;;
56045;SDS011;41913;51.030;3.706;2023-02-14T01:01:45;4.05;;;3.75;;
56045;SDS011;41913;51.030;3.706;2023-02-14T01:04:11;4.05;;;3.70;;
56045;SDS011;41913;51.030;3.706;2023-02-14T01:06:36;3.60;;;3.35;;
56045;SDS011;41913;51.030;3.706;2023-02-14T01:09:02;3.83;;;3.55;;
56045;SDS011;41913;51.030;3.706;2023-02-14T01:11:28;3.38;;;3.08;;
56045;SDS011;41913;51.030;3.706;2023-02-14T01:13:54;3.65;;;3.40;;
56045;SDS011;41913;51.030;3.706;2023-02-14T01:16:22;4.03;;;3.72;;
56045;SDS011;41913;51.030;3.706;2023-02-14T01:18:49;3.55;;;3.35;;
56045;SDS011;41913;51.030;3.706;2023-02-14T01:21:19;3.72;;;3.50;;
56045;SDS011;41913;51.030;3.706;2023-02-14T01:23:51;3.88;;;3.58;;
56045;SDS011;41913;51.030;3.706;2023-02-14T01:26:18;4.65;;;4.22;;
56045;SDS011;41913;51.030;3.706;2023-02-14T01:28:47;3.20;;;3.00;;
56045;SDS011;41913;51.030;3.706;2023-02-14T01:31:15;3.72;;;3.42;;
56045;SDS011;41913;51.030;3.706;2023-02-14T01:33:43;3.13;;;2.92;;
56045;SDS011;41913;51.030;3.706;2023-02-14T01:36:18;4.20;;;3.90;;
56045;SDS011;41913;51.030;3.706;2023-02-14T01:38:46;3.42;;;3.22;;
56045;SDS011;41913;51.030;3.706;2023-02-14T01:41:15;3.58;;;3.38;;
56045;SDS011;41913;51.030;3.706;2023-02-14T01:46:22;4.50;;;4.10;;
56045;SDS011;41913;51.030;3.706;2023-02-14T01:48:50;3.95;;;3.65;;
56045;SDS011;41913;51.030;3.706;2023-02-14T01:51:19;3.72;;;3.40;;
56045;SDS011;41913;51.030;3.706;2023-02-14T01:53:48;3.97;;;3.58;;
56045;SDS011;41913;51.030;3.706;2023-02-14T01:56:18;3.58;;;3.38;;
56045;SDS011;41913;51.030;3.706;2023-02-14T01:58:48;3.80;;;3.50;;
56045;SDS011;41913;51.030;3.706;2023-02-14T02:01:19;4.15;;;3.85;;
56045;SDS011;41913;51.030;3.706;2023-02-14T02:03:50;4.13;;;3.83;;
56045;SDS011;41913;51.030;3.706;2023-02-14T02:06:24;4.70;;;3.35;;
56045;SDS011;41913;51.030;3.706;2023-02-14T02:11:34;4.15;;;3.85;;
56045;SDS011;41913;51.030;3.706;2023-02-14T02:14:02;4.35;;;3.95;;
56045;SDS011;41913;51.030;3.706;2023-02-14T02:38:47;3.88;;;3.67;;
56045;SDS011;41913;51.030;3.706;2023-02-14T02:41:24;3.47;;;3.28;;
56045;SDS011;41913;51.030;3.706;2023-02-14T02:55:24;3.92;;;3.72;;
56045;SDS011;41913;51.030;3.706;2023-02-14T02:57:52;3.63;;;3.33;;
56045;SDS011;41913;51.030;3.706;2023-02-14T03:00:21;3.65;;;3.42;;
56045;SDS011;41913;51.030;3.706;2023-02-14T03:02:49;3.33;;;3.13;;
56045;SDS011;41913;51.030;3.706;2023-02-14T03:05:37;3.75;;;3.50;;
56045;SDS011;41913;51.030;3.706;2023-02-14T03:08:04;3.05;;;2.95;;
56045;SDS011;41913;51.030;3.706;2023-02-14T03:10:31;3.53;;;3.35;;
56045;SDS011;41913;51.030;3.706;2023-02-14T03:13:18;3.83;;;3.63;;
56045;SDS011;41913;51.030;3.706;2023-02-14T03:23:57;3.78;;;3.58;;
56045;SDS011;41913;51.030;3.706;2023-02-14T03:29:52;3.78;;;3.55;;
56045;SDS011;41913;51.030;3.706;2023-02-14T03:35:40;3.65;;;3.45;;
56045;SDS011;41913;51.030;3.706;2023-02-14T03:40:56;4.32;;;3.92;;
56045;SDS011;41913;51.030;3.706;2023-02-14T03:43:35;3.45;;;3.25;;
56045;SDS011;41913;51.030;3.706;2023-02-14T03:46:16;3.97;;;3.67;;
56045;SDS011;41913;51.030;3.706;2023-02-14T03:48:52;3.60;;;3.40;;
56045;SDS011;41913;51.030;3.706;2023-02-14T03:51:22;3.70;;;3.40;;
56045;SDS011;41913;51.030;3.706;2023-02-14T03:53:50;3.70;;;3.50;;
56045;SDS011;41913;51.030;3.706;2023-02-14T03:59:03;3.03;;;2.83;;
56045;SDS011;41913;51.030;3.706;2023-02-14T04:01:43;4.63;;;4.32;;
56045;SDS011;41913;51.030;3.706;2023-02-14T04:04:18;3.70;;;3.40;;
56045;SDS011;41913;51.030;3.706;2023-02-14T04:06:47;3.70;;;3.50;;
56045;SDS011;41913;51.030;3.706;2023-02-14T04:09:13;4.05;;;3.75;;
56045;SDS011;41913;51.030;3.706;2023-02-14T04:11:39;3.42;;;3.22;;
56045;SDS011;41913;51.030;3.706;2023-02-14T04:14:06;3.55;;;3.35;;
56045;SDS011;41913;51.030;3.706;2023-02-14T04:16:33;3.42;;;3.22;;
56045;SDS011;41913;51.030;3.706;2023-02-14T04:19:19;3.70;;;3.50;;
56045;SDS011;41913;51.030;3.706;2023-02-14T04:21:48;3.40;;;3.20;;
56045;SDS011;41913;51.030;3.706;2023-02-14T04:24:16;4.25;;;3.95;;
56045;SDS011;41913;51.030;3.706;2023-02-14T04:26:42;3.65;;;3.45;;
56045;SDS011;41913;51.030;3.706;2023-02-14T04:29:18;3.78;;;3.55;;
56045;SDS011;41913;51.030;3.706;2023-02-14T04:31:45;4.40;;;4.10;;
56045;SDS011;41913;51.030;3.706;2023-02-14T04:34:11;3.63;;;3.20;;
56045;SDS011;41913;51.030;3.706;2023-02-14T04:36:37;3.85;;;3.55;;
56045;SDS011;41913;51.030;3.706;2023-02-14T04:39:03;4.35;;;4.05;;
56045;SDS011;41913;51.030;3.706;2023-02-14T04:41:28;4.90;;;3.58;;
56045;SDS011;41913;51.030;3.706;2023-02-14T04:43:54;3.60;;;3.38;;
56045;SDS011;41913;51.030;3.706;2023-02-14T04:46:20;4.15;;;3.78;;
56045;SDS011;41913;51.030;3.706;2023-02-14T04:48:45;3.13;;;3.03;;
56045;SDS011;41913;51.030;3.706;2023-02-14T04:51:12;3.97;;;3.70;;
56045;SDS011;41913;51.030;3.706;2023-02-14T04:53:39;3.83;;;3.53;;
56045;SDS011;41913;51.030;3.706;2023-02-14T04:56:05;3.60;;;3.40;;
56045;SDS011;41913;51.030;3.706;2023-02-14T04:58:31;3.65;;;3.42;;
56045;SDS011;41913;51.030;3.706;2023-02-14T05:00:57;3.90;;;3.60;;
56045;SDS011;41913;51.030;3.706;2023-02-14T05:03:23;3.50;;;3.30;;
56045;SDS011;41913;51.030;3.706;2023-02-14T05:05:49;3.15;;;3.05;;
56045;SDS011;41913;51.030;3.706;2023-02-14T05:08:15;3.63;;;3.33;;
56045;SDS011;41913;51.030;3.706;2023-02-14T05:10:43;3.92;;;3.72;;
56045;SDS011;41913;51.030;3.706;2023-02-14T05:13:10;3.92;;;3.63;;
56045;SDS011;41913;51.030;3.706;2023-02-14T05:15:38;3.50;;;3.30;;
56045;SDS011;41913;51.030;3.706;2023-02-14T05:18:03;3.42;;;3.22;;
56045;SDS011;41913;51.030;3.706;2023-02-14T05:20:29;3.55;;;3.35;;
56045;SDS011;41913;51.030;3.706;2023-02-14T05:22:55;3.60;;;3.40;;
56045;SDS011;41913;51.030;3.706;2023-02-14T05:25:24;2.92;;;2.75;;
56045;SDS011;41913;51.030;3.706;2023-02-14T05:27:49;3.08;;;2.97;;
56045;SDS011;41913;51.030;3.706;2023-02-14T05:30:17;4.07;;;3.78;;
56045;SDS011;41913;51.030;3.706;2023-02-14T05:32:46;2.72;;;2.63;;
56045;SDS011;41913;51.030;3.706;2023-02-14T05:35:11;4.05;;;3.75;;
56045;SDS011;41913;51.030;3.706;2023-02-14T05:37:37;3.63;;;3.33;;
56045;SDS011;41913;51.030;3.706;2023-02-14T05:40:03;3.70;;;3.50;;
56045;SDS011;41913;51.030;3.706;2023-02-14T05:42:32;3.38;;;3.17;;
56045;SDS011;41913;51.030;3.706;2023-02-14T05:44:58;3.08;;;2.97;;
56045;SDS011;41913;51.030;3.706;2023-02-14T05:47:24;3.60;;;3.35;;
56045;SDS011;41913;51.030;3.706;2023-02-14T05:49:49;3.53;;;3.33;;
56045;SDS011;41913;51.030;3.706;2023-02-14T05:52:16;3.05;;;2.95;;
56045;SDS011;41913;51.030;3.706;2023-02-14T05:54:41;3.75;;;2.90;;
56045;SDS011;41913;51.030;3.706;2023-02-14T05:57:07;3.28;;;3.08;;
56045;SDS011;41913;51.030;3.706;2023-02-14T05:59:33;3.80;;;3.60;;
56045;SDS011;41913;51.030;3.706;2023-02-14T06:01:58;3.95;;;3.70;;
56045;SDS011;41913;51.030;3.706;2023-02-14T06:04:30;3.55;;;3.25;;
56045;SDS011;41913;51.030;3.706;2023-02-14T06:06:56;3.45;;;3.25;;
56045;SDS011;41913;51.030;3.706;2023-02-14T06:09:21;3.30;;;3.15;;
56045;SDS011;41913;51.030;3.706;2023-02-14T06:11:47;3.63;;;3.42;;
56045;SDS011;41913;51.030;3.706;2023-02-14T06:14:13;3.35;;;3.15;;
56045;SDS011;41913;51.030;3.706;2023-02-14T06:16:38;3.17;;;2.97;;
56045;SDS011;41913;51.030;3.706;2023-02-14T06:19:04;3.70;;;3.50;;
56045;SDS011;41913;51.030;3.706;2023-02-14T06:21:29;3.35;;;3.05;;
56045;SDS011;41913;51.030;3.706;2023-02-14T06:23:55;3.00;;;2.90;;
56045;SDS011;41913;51.030;3.706;2023-02-14T06:26:21;3.60;;;3.40;;
56045;SDS011;41913;51.030;3.706;2023-02-14T06:28:55;3.75;;;3.55;;
56045;SDS011;41913;51.030;3.706;2023-02-14T06:31:22;3.47;;;3.28;;
56045;SDS011;41913;51.030;3.706;2023-02-14T06:33:48;3.22;;;3.03;;
56045;SDS011;41913;51.030;3.706;2023-02-14T06:36:14;3.47;;;3.28;;
56045;SDS011;41913;51.030;3.706;2023-02-14T06:38:39;3.22;;;3.05;;
56045;SDS011;41913;51.030;3.706;2023-02-14T06:41:07;2.72;;;2.63;;
56045;SDS011;41913;51.030;3.706;2023-02-14T06:43:33;3.10;;;2.90;;
56045;SDS011;41913;51.030;3.706;2023-02-14T06:46:00;3.45;;;3.10;;
56045;SDS011;41913;51.030;3.706;2023-02-14T06:48:27;4.88;;;3.08;;
56045;SDS011;41913;51.030;3.706;2023-02-14T06:50:52;14.50;;;4.00;;
56045;SDS011;41913;51.030;3.706;2023-02-14T06:53:18;3.58;;;3.38;;
56045;SDS011;41913;51.030;3.706;2023-02-14T06:55:46;5.32;;;3.35;;
56045;SDS011;41913;51.030;3.706;2023-02-14T06:58:12;4.68;;;3.40;;
56045;SDS011;41913;51.030;3.706;2023-02-14T07:00:39;7.93;;;3.95;;
56045;SDS011;41913;51.030;3.706;2023-02-14T07:03:05;3.60;;;3.30;;
56045;SDS011;41913;51.030;3.706;2023-02-14T07:05:32;4.00;;;3.70;;
56045;SDS011;41913;51.030;3.706;2023-02-14T07:07:58;4.28;;;3.88;;
56045;SDS011;41913;51.030;3.706;2023-02-14T07:10:24;3.50;;;3.28;;
56045;SDS011;41913;51.030;3.706;2023-02-14T07:12:50;6.03;;;4.05;;
56045;SDS011;41913;51.030;3.706;2023-02-14T07:15:16;3.88;;;3.67;;
56045;SDS011;41913;51.030;3.706;2023-02-14T07:17:42;5.07;;;3.85;;
56045;SDS011;41913;51.030;3.706;2023-02-14T07:20:09;3.53;;;3.25;;
56045;SDS011;41913;51.030;3.706;2023-02-14T07:22:35;7.10;;;4.07;;
56045;SDS011;41913;51.030;3.706;2023-02-14T07:25:01;14.15;;;5.63;;
56045;SDS011;41913;51.030;3.706;2023-02-14T07:27:28;20.52;;;7.05;;
56045;SDS011;41913;51.030;3.706;2023-02-14T07:29:55;39.75;;;7.80;;
56045;SDS011;41913;51.030;3.706;2023-02-14T07:32:22;34.33;;;9.48;;
56045;SDS011;41913;51.030;3.706;2023-02-14T07:34:50;50.58;;;10.57;;
56045;SDS011;41913;51.030;3.706;2023-02-14T07:37:16;43.85;;;9.70;;
56045;SDS011;41913;51.030;3.706;2023-02-14T07:39:42;37.67;;;9.60;;
56045;SDS011;41913;51.030;3.706;2023-02-14T07:42:09;36.83;;;8.85;;
56045;SDS011;41913;51.030;3.706;2023-02-14T07:44:36;37.30;;;9.10;;
56045;SDS011;41913;51.030;3.706;2023-02-14T07:47:06;42.08;;;9.90;;
56045;SDS011;41913;51.030;3.706;2023-02-14T07:49:33;39.28;;;8.80;;
56045;SDS011;41913;51.030;3.706;2023-02-14T07:52:01;33.85;;;9.13;;
56045;SDS011;41913;51.030;3.706;2023-02-14T07:54:28;33.85;;;8.88;;
56045;SDS011;41913;51.030;3.706;2023-02-14T07:56:54;27.80;;;7.88;;
56045;SDS011;41913;51.030;3.706;2023-02-14T07:59:22;24.65;;;7.18;;
56045;SDS011;41913;51.030;3.706;2023-02-14T08:01:49;18.60;;;5.97;;
56045;SDS011;41913;51.030;3.706;2023-02-14T08:04:17;14.15;;;7.13;;
56045;SDS011;41913;51.030;3.706;2023-02-14T08:06:42;22.30;;;6.85;;
56045;SDS011;41913;51.030;3.706;2023-02-14T08:09:09;20.83;;;6.80;;
56045;SDS011;41913;51.030;3.706;2023-02-14T08:11:37;16.65;;;6.57;;
56045;SDS011;41913;51.030;3.706;2023-02-14T08:14:23;20.77;;;7.10;;
56045;SDS011;41913;51.030;3.706;2023-02-14T08:16:51;14.48;;;6.35;;
56045;SDS011;41913;51.030;3.706;2023-02-14T08:19:19;17.67;;;6.43;;
56045;SDS011;41913;51.030;3.706;2023-02-14T08:21:47;18.33;;;6.88;;
56045;SDS011;41913;51.030;3.706;2023-02-14T08:24:13;11.85;;;6.22;;
56045;SDS011;41913;51.030;3.706;2023-02-14T08:26:42;19.38;;;7.30;;
56045;SDS011;41913;51.030;3.706;2023-02-14T08:29:08;14.40;;;6.50;;
56045;SDS011;41913;51.030;3.706;2023-02-14T08:31:33;12.40;;;6.10;;
56045;SDS011;41913;51.030;3.706;2023-02-14T08:34:00;8.70;;;5.45;;
56045;SDS011;41913;51.030;3.706;2023-02-14T08:36:27;15.35;;;6.13;;
56045;SDS011;41913;51.030;3.706;2023-02-14T08:38:52;14.50;;;5.68;;
56045;SDS011;41913;51.030;3.706;2023-02-14T08:41:20;18.63;;;6.05;;
56045;SDS011;41913;51.030;3.706;2023-02-14T08:43:47;17.23;;;5.85;;
56045;SDS011;41913;51.030;3.706;2023-02-14T08:46:13;16.60;;;5.88;;
56045;SDS011;41913;51.030;3.706;2023-02-14T08:48:42;14.20;;;5.85;;
56045;SDS011;41913;51.030;3.706;2023-02-14T08:51:09;8.57;;;5.65;;
56045;SDS011;41913;51.030;3.706;2023-02-14T08:53:37;12.55;;;5.20;;
56045;SDS011;41913;51.030;3.706;2023-02-14T08:56:04;14.73;;;5.32;;
56045;SDS011;41913;51.030;3.706;2023-02-14T08:58:34;12.07;;;5.63;;
56045;SDS011;41913;51.030;3.706;2023-02-14T09:01:06;9.50;;;5.55;;
56045;SDS011;41913;51.030;3.706;2023-02-14T09:03:40;15.80;;;4.93;;
56045;SDS011;41913;51.030;3.706;2023-02-14T09:06:06;12.40;;;5.72;;
56045;SDS011;41913;51.030;3.706;2023-02-14T09:08:34;10.00;;;5.38;;
56045;SDS011;41913;51.030;3.706;2023-02-14T09:11:17;12.10;;;5.35;;
56045;SDS011;41913;51.030;3.706;2023-02-14T09:13:46;9.25;;;4.93;;
56045;SDS011;41913;51.030;3.706;2023-02-14T09:16:15;9.60;;;5.57;;
56045;SDS011;41913;51.030;3.706;2023-02-14T09:18:47;11.23;;;6.57;;
56045;SDS011;41913;51.030;3.706;2023-02-14T09:21:19;13.23;;;5.87;;
56045;SDS011;41913;51.030;3.706;2023-02-14T09:23:48;9.77;;;5.63;;
56045;SDS011;41913;51.030;3.706;2023-02-14T09:26:15;11.27;;;5.90;;
56045;SDS011;41913;51.030;3.706;2023-02-14T09:31:20;18.92;;;5.55;;
56045;SDS011;41913;51.030;3.706;2023-02-14T09:33:49;10.73;;;4.75;;
56045;SDS011;41913;51.030;3.706;2023-02-14T09:36:34;6.40;;;4.43;;
56045;SDS011;41913;51.030;3.706;2023-02-14T09:39:20;11.90;;;5.20;;
56045;SDS011;41913;51.030;3.706;2023-02-14T09:44:36;8.32;;;4.72;;
56045;SDS011;41913;51.030;3.706;2023-02-14T09:47:19;8.48;;;5.35;;
56045;SDS011;41913;51.030;3.706;2023-02-14T09:49:55;8.95;;;5.60;;
56045;SDS011;41913;51.030;3.706;2023-02-14T09:52:25;7.93;;;4.53;;
56045;SDS011;41913;51.030;3.706;2023-02-14T09:54:57;7.90;;;5.13;;
56045;SDS011;41913;51.030;3.706;2023-02-14T10:05:35;5.10;;;3.80;;
56045;SDS011;41913;51.030;3.706;2023-02-14T10:08:18;3.38;;;3.10;;
56045;SDS011;41913;51.030;3.706;2023-02-14T10:11:10;5.10;;;4.53;;
56045;SDS011;41913;51.030;3.706;2023-02-14T10:17:38;3.50;;;3.20;;
56045;SDS011;41913;51.030;3.706;2023-02-14T10:19:38;2.90;;;2.70;;
56045;SDS011;41913;51.030;3.706;2023-02-14T10:22:14;3.38;;;3.15;;
56045;SDS011;41913;51.030;3.706;2023-02-14T10:24:46;3.13;;;2.88;;
56045;SDS011;41913;51.030;3.706;2023-02-14T10:27:36;3.67;;;2.78;;
56045;SDS011;41913;51.030;3.706;2023-02-14T10:30:14;2.47;;;2.38;;
56045;SDS011;41913;51.030;3.706;2023-02-14T10:32:46;4.43;;;2.42;;
56045;SDS011;41913;51.030;3.706;2023-02-14T10:35:33;3.17;;;2.88;;
56045;SDS011;41913;51.030;3.706;2023-02-14T10:43:38;2.53;;;2.33;;
56045;SDS011;41913;51.030;3.706;2023-02-14T10:52:07;3.17;;;2.97;;
56045;SDS011;41913;51.030;3.706;2023-02-14T10:54:44;2.63;;;2.35;;
56045;SDS011;41913;51.030;3.706;2023-02-14T11:02:24;4.82;;;2.60;;
56045;SDS011;41913;51.030;3.706;2023-02-14T11:04:57;2.08;;;1.98;;
56045;SDS011;41913;51.030;3.706;2023-02-14T11:07:26;2.95;;;2.75;;
56045;SDS011;41913;51.030;3.706;2023-02-14T11:09:52;3.60;;;3.00;;
56045;SDS011;41913;51.030;3.706;2023-02-14T11:12:31;2.53;;;2.35;;
56045;SDS011;41913;51.030;3.706;2023-02-14T11:15:13;2.90;;;2.70;;
56045;SDS011;41913;51.030;3.706;2023-02-14T11:17:43;3.03;;;2.75;;
56045;SDS011;41913;51.030;3.706;2023-02-14T11:22:46;3.72;;;3.42;;
56045;SDS011;41913;51.030;3.706;2023-02-14T11:25:20;3.80;;;2.97;;
56045;SDS011;41913;51.030;3.706;2023-02-14T11:27:47;2.75;;;2.42;;
56045;SDS011;41913;51.030;3.706;2023-02-14T11:30:27;2.67;;;2.47;;
56045;SDS011;41913;51.030;3.706;2023-02-14T11:32:57;3.08;;;2.88;;
56045;SDS011;41913;51.030;3.706;2023-02-14T11:35:24;2.40;;;2.25;;
56045;SDS011;41913;51.030;3.706;2023-02-14T11:37:58;2.75;;;2.35;;
56045;SDS011;41913;51.030;3.706;2023-02-14T11:45:38;4.25;;;3.15;;
56045;SDS011;41913;51.030;3.706;2023-02-14T11:50:57;2.88;;;2.67;;
56045;SDS011;41913;51.030;3.706;2023-02-14T11:53:42;2.42;;;2.33;;
56045;SDS011;41913;51.030;3.706;2023-02-14T11:56:10;2.60;;;2.45;;
56045;SDS011;41913;51.030;3.706;2023-02-14T11:59:01;2.70;;;2.60;;
56045;SDS011;41913;51.030;3.706;2023-02-14T12:01:31;2.85;;;2.65;;
56045;SDS011;41913;51.030;3.706;2023-02-14T12:04:04;2.72;;;2.53;;
56045;SDS011;41913;51.030;3.706;2023-02-14T12:06:37;2.63;;;2.53;;
56045;SDS011;41913;51.030;3.706;2023-02-14T12:09:11;2.65;;;2.53;;
56045;SDS011;41913;51.030;3.706;2023-02-14T12:11:37;5.10;;;2.70;;
56045;SDS011;41913;51.030;3.706;2023-02-14T12:14:03;2.83;;;2.25;;
56045;SDS011;41913;51.030;3.706;2023-02-14T12:16:42;2.53;;;2.42;;
56045;SDS011;41913;51.030;3.706;2023-02-14T12:19:18;2.50;;;2.40;;
56045;SDS011;41913;51.030;3.706;2023-02-14T12:21:56;2.60;;;2.50;;
56045;SDS011;41913;51.030;3.706;2023-02-14T12:24:35;2.85;;;2.65;;
56045;SDS011;41913;51.030;3.706;2023-02-14T12:27:18;2.33;;;2.22;;
56045;SDS011;41913;51.030;3.706;2023-02-14T12:30:01;2.83;;;2.72;;
56045;SDS011;41913;51.030;3.706;2023-02-14T12:32:37;3.17;;;2.83;;
56045;SDS011;41913;51.030;3.706;2023-02-14T12:38:12;2.72;;;2.53;;
56045;SDS011;41913;51.030;3.706;2023-02-14T12:41:00;2.72;;;2.53;;
56045;SDS011;41913;51.030;3.706;2023-02-14T12:57:19;2.67;;;2.58;;
56045;SDS011;41913;51.030;3.706;2023-02-14T13:02:57;2.03;;;1.92;;
56045;SDS011;41913;51.030;3.706;2023-02-14T13:08:38;2.55;;;2.45;;
56045;SDS011;41913;51.030;3.706;2023-02-14T13:11:27;3.20;;;3.00;;
56045;SDS011;41913;51.030;3.706;2023-02-14T13:22:05;2.97;;;2.78;;
56045;SDS011;41913;51.030;3.706;2023-02-14T13:24:38;5.07;;;2.50;;
56045;SDS011;41913;51.030;3.706;2023-02-14T13:27:11;2.38;;;2.22;;
56045;SDS011;41913;51.030;3.706;2023-02-14T13:29:44;2.80;;;2.60;;
56045;SDS011;41913;51.030;3.706;2023-02-14T13:32:14;3.08;;;2.50;;
56045;SDS011;41913;51.030;3.706;2023-02-14T13:34:45;2.53;;;2.33;;
56045;SDS011;41913;51.030;3.706;2023-02-14T13:37:15;2.20;;;2.10;;
56045;SDS011;41913;51.030;3.706;2023-02-14T13:39:50;2.90;;;2.70;;
56045;SDS011;41913;51.030;3.706;2023-02-14T13:48:16;3.00;;;2.50;;
56045;SDS011;41913;51.030;3.706;2023-02-14T13:51:08;2.40;;;2.30;;
56045;SDS011;41913;51.030;3.706;2023-02-14T13:53:38;2.57;;;2.43;;
56045;SDS011;41913;51.030;3.706;2023-02-14T14:03:54;2.03;;;1.92;;
56045;SDS011;41913;51.030;3.706;2023-02-14T14:06:23;2.78;;;2.58;;
56045;SDS011;41913;51.030;3.706;2023-02-14T14:08:49;2.85;;;2.65;;
56045;SDS011;41913;51.030;3.706;2023-02-14T14:13:54;2.53;;;2.33;;
56045;SDS011;41913;51.030;3.706;2023-02-14T14:31:58;2.92;;;2.72;;
56045;SDS011;41913;51.030;3.706;2023-02-14T14:34:26;2.63;;;2.53;;
56045;SDS011;41913;51.030;3.706;2023-02-14T14:37:03;2.42;;;2.22;;
56045;SDS011;41913;51.030;3.706;2023-02-14T14:39:32;2.72;;;2.63;;
56045;SDS011;41913;51.030;3.706;2023-02-14T14:44:49;2.40;;;2.30;;
56045;SDS011;41913;51.030;3.706;2023-02-14T14:47:21;2.38;;;2.22;;
56045;SDS011;41913;51.030;3.706;2023-02-14T14:50:15;2.45;;;2.35;;
56045;SDS011;41913;51.030;3.706;2023-02-14T14:52:51;2.33;;;2.22;;
56045;SDS011;41913;51.030;3.706;2023-02-14T14:55:37;2.58;;;2.33;;
56045;SDS011;41913;51.030;3.706;2023-02-14T14:58:28;2.92;;;2.47;;
56045;SDS011;41913;51.030;3.706;2023-02-14T15:00:57;2.15;;;2.03;;
56045;SDS011;41913;51.030;3.706;2023-02-14T15:03:24;2.30;;;2.17;;
56045;SDS011;41913;51.030;3.706;2023-02-14T15:06:01;1.90;;;1.80;;
56045;SDS011;41913;51.030;3.706;2023-02-14T15:08:40;2.55;;;2.45;;
56045;SDS011;41913;51.030;3.706;2023-02-14T15:14:02;2.45;;;2.35;;
56045;SDS011;41913;51.030;3.706;2023-02-14T15:16:40;2.15;;;2.05;;
56045;SDS011;41913;51.030;3.706;2023-02-14T15:22:16;2.95;;;2.85;;
56045;SDS011;41913;51.030;3.706;2023-02-14T15:24:44;2.30;;;2.20;;
56045;SDS011;41913;51.030;3.706;2023-02-14T15:27:12;2.08;;;1.98;;
56045;SDS011;41913;51.030;3.706;2023-02-14T15:29:57;1.60;;;1.60;;
56045;SDS011;41913;51.030;3.706;2023-02-14T15:32:29;1.80;;;1.70;;
56045;SDS011;41913;51.030;3.706;2023-02-14T15:34:58;2.40;;;2.30;;
56045;SDS011;41913;51.030;3.706;2023-02-14T15:37:27;1.90;;;1.90;;
56045;SDS011;41913;51.030;3.706;2023-02-14T15:39:54;2.17;;;2.10;;
56045;SDS011;41913;51.030;3.706;2023-02-14T15:42:28;2.00;;;1.90;;
56045;SDS011;41913;51.030;3.706;2023-02-14T15:47:43;2.10;;;2.00;;
56045;SDS011;41913;51.030;3.706;2023-02-14T15:50:12;1.90;;;1.90;;
56045;SDS011;41913;51.030;3.706;2023-02-14T15:52:43;1.65;;;1.60;;
56045;SDS011;41913;51.030;3.706;2023-02-14T15:55:11;2.20;;;2.03;;
56045;SDS011;41913;51.030;3.706;2023-02-14T15:57:46;2.08;;;1.90;;
56045;SDS011;41913;51.030;3.706;2023-02-14T16:00:24;1.85;;;1.85;;
56045;SDS011;41913;51.030;3.706;2023-02-14T16:02:53;2.40;;;2.30;;
56045;SDS011;41913;51.030;3.706;2023-02-14T16:05:25;2.08;;;1.98;;
56045;SDS011;41913;51.030;3.706;2023-02-14T16:10:35;2.20;;;2.10;;
56045;SDS011;41913;51.030;3.706;2023-02-14T16:13:04;2.22;;;2.13;;
56045;SDS011;41913;51.030;3.706;2023-02-14T16:15:54;2.10;;;2.00;;
56045;SDS011;41913;51.030;3.706;2023-02-14T16:23:46;2.53;;;2.42;;
56045;SDS011;41913;51.030;3.706;2023-02-14T16:29:10;2.30;;;2.20;;
56045;SDS011;41913;51.030;3.706;2023-02-14T16:31:38;2.03;;;1.92;;
56045;SDS011;41913;51.030;3.706;2023-02-14T16:34:08;2.17;;;2.08;;
56045;SDS011;41913;51.030;3.706;2023-02-14T16:39:05;2.00;;;1.90;;
56045;SDS011;41913;51.030;3.706;2023-02-14T16:41:46;2.22;;;2.03;;
56045;SDS011;41913;51.030;3.706;2023-02-14T16:44:16;2.50;;;2.40;;
56045;SDS011;41913;51.030;3.706;2023-02-14T16:46:43;2.15;;;2.05;;
56045;SDS011;41913;51.030;3.706;2023-02-14T16:49:10;2.33;;;2.22;;
56045;SDS011;41913;51.030;3.706;2023-02-14T16:51:36;2.00;;;1.90;;
56045;SDS011;41913;51.030;3.706;2023-02-14T16:54:09;2.50;;;2.40;;
56045;SDS011;41913;51.030;3.706;2023-02-14T16:59:19;1.77;;;1.67;;
56045;SDS011;41913;51.030;3.706;2023-02-14T17:01:45;1.60;;;1.60;;
56045;SDS011;41913;51.030;3.706;2023-02-14T17:04:11;1.77;;;1.67;;
56045;SDS011;41913;51.030;3.706;2023-02-14T17:06:37;2.03;;;1.90;;
56045;SDS011;41913;51.030;3.706;2023-02-14T17:09:06;1.70;;;1.70;;
56045;SDS011;41913;51.030;3.706;2023-02-14T17:11:36;1.95;;;1.85;;
56045;SDS011;41913;51.030;3.706;2023-02-14T17:14:06;1.98;;;1.88;;
56045;SDS011;41913;51.030;3.706;2023-02-14T17:16:34;2.30;;;2.20;;
56045;SDS011;41913;51.030;3.706;2023-02-14T17:19:00;2.10;;;2.00;;
56045;SDS011;41913;51.030;3.706;2023-02-14T17:21:26;2.47;;;2.38;;
56045;SDS011;41913;51.030;3.706;2023-02-14T17:23:52;2.13;;;2.03;;
56045;SDS011;41913;51.030;3.706;2023-02-14T17:26:18;2.42;;;2.33;;
56045;SDS011;41913;51.030;3.706;2023-02-14T17:28:44;2.90;;;2.72;;
56045;SDS011;41913;51.030;3.706;2023-02-14T17:31:10;3.17;;;2.97;;
56045;SDS011;41913;51.030;3.706;2023-02-14T17:33:36;3.60;;;3.40;;
56045;SDS011;41913;51.030;3.706;2023-02-14T17:36:06;4.63;;;4.30;;
56045;SDS011;41913;51.030;3.706;2023-02-14T17:38:43;3.28;;;3.08;;
56045;SDS011;41913;51.030;3.706;2023-02-14T17:41:13;4.20;;;3.78;;
56045;SDS011;41913;51.030;3.706;2023-02-14T17:43:40;4.05;;;3.25;;
56045;SDS011;41913;51.030;3.706;2023-02-14T17:46:07;3.55;;;3.35;;
56045;SDS011;41913;51.030;3.706;2023-02-14T17:48:34;4.18;;;3.85;;
56045;SDS011;41913;51.030;3.706;2023-02-14T17:51:04;4.88;;;3.85;;
56045;SDS011;41913;51.030;3.706;2023-02-14T17:53:31;4.65;;;4.15;;
56045;SDS011;41913;51.030;3.706;2023-02-14T17:56:31;4.53;;;4.22;;
56045;SDS011;41913;51.030;3.706;2023-02-14T17:58:51;3.85;;;3.55;;
56045;SDS011;41913;51.030;3.706;2023-02-14T18:01:20;4.47;;;4.13;;
56045;SDS011;41913;51.030;3.706;2023-02-14T18:03:47;4.00;;;3.70;;
56045;SDS011;41913;51.030;3.706;2023-02-14T18:06:13;3.40;;;3.20;;
56045;SDS011;41913;51.030;3.706;2023-02-14T18:08:43;6.95;;;3.75;;
56045;SDS011;41913;51.030;3.706;2023-02-14T18:11:12;4.40;;;4.00;;
56045;SDS011;41913;51.030;3.706;2023-02-14T18:13:39;4.65;;;4.25;;
56045;SDS011;41913;51.030;3.706;2023-02-14T18:16:10;5.53;;;5.05;;